sensor_id;sensor_type;location;lat;lon;timestamp;pressure;altitude;pressure_sealevel;temperature;humidity
36514;BME280;66331;46.796;9.824;2023-01-27T00:01:02;83940.19;;;-9.73;43.49
36514;BME280;66331;46.796;9.824;2023-01-27T00:03:29;83944.61;;;-10.01;44.27
36514;BME280;66331;46.796;9.824;2023-01-27T00:05:57;83938.63;;;-9.12;42.85
36514;BME280;66331;46.796;9.824;2023-01-27T00:08:23;83937.75;;;-8.96;42.53
36514;BME280;66331;46.796;9.824;2023-01-27T00:10:50;83942.44;;;-11.21;46.80
36514;BME280;66331;46.796;9.824;2023-01-27T00:13:17;83938.02;;;-11.06;47.39
36514;BME280;66331;46.796;9.824;2023-01-27T00:15:44;83932.58;;;-10.14;45.80
36514;BME280;66331;46.796;9.824;2023-01-27T00:18:12;83936.81;;;-10.94;46.85
36514;BME280;66331;46.796;9.824;2023-01-27T00:20:39;83933.55;;;-10.26;45.41
36514;BME280;66331;46.796;9.824;2023-01-27T00:23:07;83935.42;;;-11.33;48.01
36514;BME280;66331;46.796;9.824;2023-01-27T00:25:35;83932.02;;;-11.64;48.74
36514;BME280;66331;46.796;9.824;2023-01-27T00:28:02;83928.87;;;-11.59;49.45
36514;BME280;66331;46.796;9.824;2023-01-27T00:30:29;83928.13;;;-11.91;51.02
36514;BME280;66331;46.796;9.824;2023-01-27T00:32:56;83929.21;;;-11.99;50.79
36514;BME280;66331;46.796;9.824;2023-01-27T00:35:23;83929.20;;;-10.10;46.38
36514;BME280;66331;46.796;9.824;2023-01-27T00:37:51;83925.81;;;-9.99;46.08
36514;BME280;66331;46.796;9.824;2023-01-27T00:40:18;83927.69;;;-9.96;45.59
36514;BME280;66331;46.796;9.824;2023-01-27T00:42:45;83924.16;;;-10.18;45.66
36514;BME280;66331;46.796;9.824;2023-01-27T00:45:11;83921.99;;;-9.98;45.10
36514;BME280;66331;46.796;9.824;2023-01-27T00:47:39;83923.72;;;-10.97;47.13
36514;BME280;66331;46.796;9.824;2023-01-27T00:50:07;83918.82;;;-11.41;47.95
36514;BME280;66331;46.796;9.824;2023-01-27T00:52:34;83921.51;;;-11.66;48.68
36514;BME280;66331;46.796;9.824;2023-01-27T00:55:01;83920.66;;;-10.85;47.47
36514;BME280;66331;46.796;9.824;2023-01-27T00:57:28;83912.95;;;-11.32;47.66
36514;BME280;66331;46.796;9.824;2023-01-27T00:59:55;83918.00;;;-11.03;46.77
36514;BME280;66331;46.796;9.824;2023-01-27T01:02:24;83918.67;;;-10.58;46.13
36514;BME280;66331;46.796;9.824;2023-01-27T01:04:51;83925.00;;;-10.98;46.79
36514;BME280;66331;46.796;9.824;2023-01-27T01:07:19;83916.41;;;-9.57;44.42
36514;BME280;66331;46.796;9.824;2023-01-27T01:09:47;83926.12;;;-10.34;44.32
36514;BME280;66331;46.796;9.824;2023-01-27T01:12:14;83923.73;;;-9.57;42.20
36514;BME280;66331;46.796;9.824;2023-01-27T01:14:42;83923.63;;;-10.01;42.59
36514;BME280;66331;46.796;9.824;2023-01-27T01:17:09;83919.52;;;-10.22;41.94
36514;BME280;66331;46.796;9.824;2023-01-27T01:19:38;83916.71;;;-10.16;41.98
36514;BME280;66331;46.796;9.824;2023-01-27T01:22:05;83921.45;;;-10.13;41.56
36514;BME280;66331;46.796;9.824;2023-01-27T01:24:33;83916.05;;;-10.86;41.18
36514;BME280;66331;46.796;9.824;2023-01-27T01:27:00;83914.48;;;-10.91;41.63
36514;BME280;66331;46.796;9.824;2023-01-27T01:29:28;83913.79;;;-10.93;41.67
36514;BME280;66331;46.796;9.824;2023-01-27T01:31:57;83913.05;;;-10.72;41.61
36514;BME280;66331;46.796;9.824;2023-01-27T01:34:27;83912.17;;;-11.15;42.20
36514;BME280;66331;46.796;9.824;2023-01-27T01:36:55;83908.94;;;-10.47;42.02
36514;BME280;66331;46.796;9.824;2023-01-27T01:39:23;83909.66;;;-10.82;41.40
36514;BME280;66331;46.796;9.824;2023-01-27T01:41:51;83911.73;;;-10.85;41.21
36514;BME280;66331;46.796;9.824;2023-01-27T01:44:21;83904.62;;;-10.40;41.38
36514;BME280;66331;46.796;9.824;2023-01-27T01:46:48;83910.81;;;-10.83;41.22
36514;BME280;66331;46.796;9.824;2023-01-27T01:49:19;83901.62;;;-11.61;43.29
36514;BME280;66331;46.796;9.824;2023-01-27T01:51:52;83904.54;;;-11.43;42.65
36514;BME280;66331;46.796;9.824;2023-01-27T01:54:24;83906.69;;;-11.11;41.49
36514;BME280;66331;46.796;9.824;2023-01-27T01:56:57;83909.29;;;-10.74;40.40
36514;BME280;66331;46.796;9.824;2023-01-27T01:59:30;83914.67;;;-11.20;41.55
36514;BME280;66331;46.796;9.824;2023-01-27T02:02:04;83911.16;;;-11.42;41.90
36514;BME280;66331;46.796;9.824;2023-01-27T02:04:37;83909.33;;;-11.17;41.51
36514;BME280;66331;46.796;9.824;2023-01-27T02:07:07;83908.09;;;-11.05;41.66
36514;BME280;66331;46.796;9.824;2023-01-27T02:09:39;83910.13;;;-10.99;41.61
36514;BME280;66331;46.796;9.824;2023-01-27T02:12:07;83906.81;;;-10.17;40.31
36514;BME280;66331;46.796;9.824;2023-01-27T02:14:34;83907.12;;;-11.03;41.16
36514;BME280;66331;46.796;9.824;2023-01-27T02:17:02;83907.01;;;-11.02;41.69
36514;BME280;66331;46.796;9.824;2023-01-27T02:19:36;83906.81;;;-12.45;44.92
36514;BME280;66331;46.796;9.824;2023-01-27T02:22:10;83907.27;;;-11.65;45.08
36514;BME280;66331;46.796;9.824;2023-01-27T02:24:44;83907.41;;;-10.74;43.51
36514;BME280;66331;46.796;9.824;2023-01-27T02:27:14;83908.71;;;-11.87;44.95
36514;BME280;66331;46.796;9.824;2023-01-27T02:29:42;83903.12;;;-11.21;42.97
36514;BME280;66331;46.796;9.824;2023-01-27T02:32:22;83900.53;;;-11.38;43.34
36514;BME280;66331;46.796;9.824;2023-01-27T02:34:51;83898.92;;;-11.28;43.10
36514;BME280;66331;46.796;9.824;2023-01-27T02:37:20;83898.13;;;-10.94;42.59
36514;BME280;66331;46.796;9.824;2023-01-27T02:39:49;83891.25;;;-10.86;42.83
36514;BME280;66331;46.796;9.824;2023-01-27T02:42:18;83892.80;;;-12.44;45.32
36514;BME280;66331;46.796;9.824;2023-01-27T02:44:46;83898.95;;;-11.88;44.71
36514;BME280;66331;46.796;9.824;2023-01-27T02:47:12;83899.28;;;-11.98;43.96
36514;BME280;66331;46.796;9.824;2023-01-27T02:49:39;83903.25;;;-11.26;41.04
36514;BME280;66331;46.796;9.824;2023-01-27T02:52:07;83906.06;;;-11.16;40.97
36514;BME280;66331;46.796;9.824;2023-01-27T02:54:34;83907.28;;;-11.42;41.13
36514;BME280;66331;46.796;9.824;2023-01-27T02:57:01;83905.32;;;-11.63;40.64
36514;BME280;66331;46.796;9.824;2023-01-27T02:59:28;83904.40;;;-12.47;42.34
36514;BME280;66331;46.796;9.824;2023-01-27T03:01:55;83899.13;;;-11.76;41.74
36514;BME280;66331;46.796;9.824;2023-01-27T03:04:24;83902.33;;;-11.23;41.08
36514;BME280;66331;46.796;9.824;2023-01-27T03:06:51;83904.43;;;-11.73;41.40
36514;BME280;66331;46.796;9.824;2023-01-27T03:09:18;83903.47;;;-11.45;41.46
36514;BME280;66331;46.796;9.824;2023-01-27T03:11:45;83900.29;;;-11.93;41.29
36514;BME280;66331;46.796;9.824;2023-01-27T03:14:12;83897.69;;;-11.56;40.71
36514;BME280;66331;46.796;9.824;2023-01-27T03:16:40;83899.65;;;-12.06;41.57
36514;BME280;66331;46.796;9.824;2023-01-27T03:19:07;83900.41;;;-13.35;42.87
36514;BME280;66331;46.796;9.824;2023-01-27T03:21:34;83900.72;;;-13.43;43.07
36514;BME280;66331;46.796;9.824;2023-01-27T03:24:01;83909.13;;;-14.47;44.93
36514;BME280;66331;46.796;9.824;2023-01-27T03:26:28;83906.04;;;-12.25;42.49
36514;BME280;66331;46.796;9.824;2023-01-27T03:28:55;83906.47;;;-12.74;43.27
36514;BME280;66331;46.796;9.824;2023-01-27T03:31:24;83904.00;;;-12.32;42.26
36514;BME280;66331;46.796;9.824;2023-01-27T03:33:51;83907.35;;;-12.11;42.02
36514;BME280;66331;46.796;9.824;2023-01-27T03:36:18;83901.86;;;-12.49;42.42
36514;BME280;66331;46.796;9.824;2023-01-27T03:38:45;83903.22;;;-12.44;42.78
36514;BME280;66331;46.796;9.824;2023-01-27T03:41:13;83904.22;;;-12.54;43.30
36514;BME280;66331;46.796;9.824;2023-01-27T03:43:40;83905.32;;;-12.45;42.24
36514;BME280;66331;46.796;9.824;2023-01-27T03:46:07;83907.57;;;-12.18;41.90
36514;BME280;66331;46.796;9.824;2023-01-27T03:48:35;83907.50;;;-12.69;42.26
36514;BME280;66331;46.796;9.824;2023-01-27T03:51:04;83899.63;;;-13.12;43.25
36514;BME280;66331;46.796;9.824;2023-01-27T03:53:31;83903.50;;;-12.40;42.70
36514;BME280;66331;46.796;9.824;2023-01-27T03:55:58;83903.98;;;-13.66;43.12
36514;BME280;66331;46.796;9.824;2023-01-27T03:58:26;83905.38;;;-13.54;43.07
36514;BME280;66331;46.796;9.824;2023-01-27T04:00:55;83906.02;;;-12.22;41.85
36514;BME280;66331;46.796;9.824;2023-01-27T04:03:25;83910.55;;;-12.00;41.02
36514;BME280;66331;46.796;9.824;2023-01-27T04:05:52;83912.35;;;-12.29;41.51
36514;BME280;66331;46.796;9.824;2023-01-27T04:08:19;83917.53;;;-12.86;42.34
36514;BME280;66331;46.796;9.824;2023-01-27T04:10:46;83920.78;;;-13.94;44.45
36514;BME280;66331;46.796;9.824;2023-01-27T04:13:14;83911.99;;;-12.48;42.12
36514;BME280;66331;46.796;9.824;2023-01-27T04:15:41;83912.89;;;-12.60;42.58
36514;BME280;66331;46.796;9.824;2023-01-27T04:18:07;83925.13;;;-13.46;43.77
36514;BME280;66331;46.796;9.824;2023-01-27T04:20:35;83920.79;;;-12.65;42.28
36514;BME280;66331;46.796;9.824;2023-01-27T04:23:02;83926.51;;;-13.72;44.38
36514;BME280;66331;46.796;9.824;2023-01-27T04:25:29;83929.77;;;-14.52;45.64
36514;BME280;66331;46.796;9.824;2023-01-27T04:27:56;83931.17;;;-14.81;46.50
36514;BME280;66331;46.796;9.824;2023-01-27T04:30:24;83929.91;;;-13.68;43.10
36514;BME280;66331;46.796;9.824;2023-01-27T04:32:50;83926.03;;;-13.56;42.91
36514;BME280;66331;46.796;9.824;2023-01-27T04:35:17;83921.15;;;-13.04;41.95
36514;BME280;66331;46.796;9.824;2023-01-27T04:37:44;83918.43;;;-13.17;41.91
36514;BME280;66331;46.796;9.824;2023-01-27T04:40:12;83920.87;;;-13.30;41.67
36514;BME280;66331;46.796;9.824;2023-01-27T04:42:39;83918.73;;;-12.86;41.45
36514;BME280;66331;46.796;9.824;2023-01-27T04:45:07;83915.20;;;-12.43;40.61
36514;BME280;66331;46.796;9.824;2023-01-27T04:47:34;83916.56;;;-12.39;41.04
36514;BME280;66331;46.796;9.824;2023-01-27T04:50:01;83910.25;;;-13.74;42.71
36514;BME280;66331;46.796;9.824;2023-01-27T04:52:28;83908.08;;;-13.76;42.91
36514;BME280;66331;46.796;9.824;2023-01-27T04:54:56;83903.19;;;-14.18;42.86
36514;BME280;66331;46.796;9.824;2023-01-27T04:57:24;83900.02;;;-15.52;45.39
36514;BME280;66331;46.796;9.824;2023-01-27T04:59:51;83888.17;;;-13.95;43.49
36514;BME280;66331;46.796;9.824;2023-01-27T05:02:18;83888.86;;;-13.41;42.60
36514;BME280;66331;46.796;9.824;2023-01-27T05:04:45;83898.42;;;-13.20;42.52
36514;BME280;66331;46.796;9.824;2023-01-27T05:07:12;83902.07;;;-13.77;42.71
36514;BME280;66331;46.796;9.824;2023-01-27T05:09:39;83903.20;;;-13.49;42.54
36514;BME280;66331;46.796;9.824;2023-01-27T05:12:07;83895.20;;;-13.31;40.89
36514;BME280;66331;46.796;9.824;2023-01-27T05:14:34;83899.71;;;-13.02;40.72
36514;BME280;66331;46.796;9.824;2023-01-27T05:17:00;83906.69;;;-12.83;40.85
36514;BME280;66331;46.796;9.824;2023-01-27T05:19:28;83910.33;;;-13.13;40.67
36514;BME280;66331;46.796;9.824;2023-01-27T05:21:55;83912.16;;;-13.85;41.72
36514;BME280;66331;46.796;9.824;2023-01-27T05:24:21;83910.59;;;-12.64;40.94
36514;BME280;66331;46.796;9.824;2023-01-27T05:26:48;83911.94;;;-13.30;41.49
36514;BME280;66331;46.796;9.824;2023-01-27T05:29:16;83909.78;;;-13.08;41.36
36514;BME280;66331;46.796;9.824;2023-01-27T05:31:43;83908.38;;;-13.93;43.23
36514;BME280;66331;46.796;9.824;2023-01-27T05:34:10;83906.09;;;-12.56;41.36
36514;BME280;66331;46.796;9.824;2023-01-27T05:36:37;83905.70;;;-14.45;42.31
36514;BME280;66331;46.796;9.824;2023-01-27T05:39:04;83917.31;;;-15.89;45.06
36514;BME280;66331;46.796;9.824;2023-01-27T05:41:31;83911.61;;;-14.94;43.47
36514;BME280;66331;46.796;9.824;2023-01-27T05:43:58;83919.31;;;-14.55;42.83
36514;BME280;66331;46.796;9.824;2023-01-27T05:46:26;83916.66;;;-13.94;41.31
36514;BME280;66331;46.796;9.824;2023-01-27T05:48:54;83918.09;;;-14.49;42.94
36514;BME280;66331;46.796;9.824;2023-01-27T05:51:23;83911.79;;;-13.27;41.10
36514;BME280;66331;46.796;9.824;2023-01-27T05:53:51;83917.22;;;-14.80;43.83
36514;BME280;66331;46.796;9.824;2023-01-27T05:56:18;83919.28;;;-14.42;43.68
36514;BME280;66331;46.796;9.824;2023-01-27T05:58:45;83918.79;;;-13.15;40.87
36514;BME280;66331;46.796;9.824;2023-01-27T06:01:14;83920.48;;;-13.01;40.17
36514;BME280;66331;46.796;9.824;2023-01-27T06:03:42;83918.94;;;-14.51;42.40
36514;BME280;66331;46.796;9.824;2023-01-27T06:06:10;83926.39;;;-13.44;40.86
36514;BME280;66331;46.796;9.824;2023-01-27T06:08:39;83918.12;;;-13.88;40.79
36514;BME280;66331;46.796;9.824;2023-01-27T06:11:07;83921.27;;;-13.88;41.45
36514;BME280;66331;46.796;9.824;2023-01-27T06:13:34;83918.37;;;-14.56;42.04
36514;BME280;66331;46.796;9.824;2023-01-27T06:16:03;83910.78;;;-13.94;41.38
36514;BME280;66331;46.796;9.824;2023-01-27T06:18:32;83910.00;;;-13.06;40.00
36514;BME280;66331;46.796;9.824;2023-01-27T06:21:00;83908.34;;;-13.35;40.66
36514;BME280;66331;46.796;9.824;2023-01-27T06:23:28;83908.79;;;-14.63;43.21
36514;BME280;66331;46.796;9.824;2023-01-27T06:26:00;83908.22;;;-13.34;40.51
36514;BME280;66331;46.796;9.824;2023-01-27T06:28:29;83902.30;;;-13.39;40.37
36514;BME280;66331;46.796;9.824;2023-01-27T06:31:02;83892.54;;;-12.59;39.49
36514;BME280;66331;46.796;9.824;2023-01-27T06:33:30;83897.28;;;-14.45;42.87
36514;BME280;66331;46.796;9.824;2023-01-27T06:36:00;83907.17;;;-13.75;42.46
36514;BME280;66331;46.796;9.824;2023-01-27T06:38:27;83914.72;;;-13.89;42.46
36514;BME280;66331;46.796;9.824;2023-01-27T06:40:54;83913.45;;;-14.36;43.83
36514;BME280;66331;46.796;9.824;2023-01-27T06:43:21;83917.98;;;-14.05;43.40
36514;BME280;66331;46.796;9.824;2023-01-27T06:45:49;83920.13;;;-13.30;42.25
36514;BME280;66331;46.796;9.824;2023-01-27T06:48:17;83926.03;;;-12.72;41.31
36514;BME280;66331;46.796;9.824;2023-01-27T06:50:44;83932.46;;;-14.67;43.57
36514;BME280;66331;46.796;9.824;2023-01-27T06:53:12;83931.15;;;-14.79;43.22
36514;BME280;66331;46.796;9.824;2023-01-27T06:55:39;83930.90;;;-14.09;42.09
36514;BME280;66331;46.796;9.824;2023-01-27T06:58:07;83925.89;;;-14.43;42.21
36514;BME280;66331;46.796;9.824;2023-01-27T07:00:35;83931.13;;;-13.84;40.83
36514;BME280;66331;46.796;9.824;2023-01-27T07:03:03;83931.52;;;-14.12;41.59
36514;BME280;66331;46.796;9.824;2023-01-27T07:05:30;83930.22;;;-13.67;41.29
36514;BME280;66331;46.796;9.824;2023-01-27T07:07:57;83929.48;;;-13.71;40.54
36514;BME280;66331;46.796;9.824;2023-01-27T07:10:25;83927.38;;;-14.05;42.24
36514;BME280;66331;46.796;9.824;2023-01-27T07:13:03;83930.92;;;-14.81;43.59
36514;BME280;66331;46.796;9.824;2023-01-27T07:15:31;83928.09;;;-13.93;41.94
36514;BME280;66331;46.796;9.824;2023-01-27T07:18:00;83930.99;;;-14.07;42.66
36514;BME280;66331;46.796;9.824;2023-01-27T07:20:40;83934.99;;;-14.01;41.87
36514;BME280;66331;46.796;9.824;2023-01-27T07:23:24;83940.96;;;-13.46;41.20
36514;BME280;66331;46.796;9.824;2023-01-27T07:25:52;83943.28;;;-13.54;41.01
36514;BME280;66331;46.796;9.824;2023-01-27T07:28:20;83940.41;;;-14.78;43.08
36514;BME280;66331;46.796;9.824;2023-01-27T07:31:02;83936.56;;;-13.78;42.03
36514;BME280;66331;46.796;9.824;2023-01-27T07:33:29;83931.00;;;-12.78;40.25
36514;BME280;66331;46.796;9.824;2023-01-27T07:35:57;83934.77;;;-13.86;42.25
36514;BME280;66331;46.796;9.824;2023-01-27T07:38:25;83932.62;;;-13.50;41.08
36514;BME280;66331;46.796;9.824;2023-01-27T07:40:52;83936.28;;;-13.75;41.63
36514;BME280;66331;46.796;9.824;2023-01-27T07:43:19;83936.75;;;-13.78;42.30
36514;BME280;66331;46.796;9.824;2023-01-27T07:45:46;83937.28;;;-13.88;43.07
36514;BME280;66331;46.796;9.824;2023-01-27T07:48:14;83937.88;;;-14.13;43.60
36514;BME280;66331;46.796;9.824;2023-01-27T07:50:41;83934.20;;;-13.93;43.64
36514;BME280;66331;46.796;9.824;2023-01-27T07:53:09;83938.83;;;-12.89;41.82
36514;BME280;66331;46.796;9.824;2023-01-27T07:55:43;83947.76;;;-15.04;43.82
36514;BME280;66331;46.796;9.824;2023-01-27T07:58:11;83949.40;;;-14.67;43.59
36514;BME280;66331;46.796;9.824;2023-01-27T08:00:38;83943.13;;;-14.20;42.39
36514;BME280;66331;46.796;9.824;2023-01-27T08:03:05;83935.57;;;-13.54;41.95
36514;BME280;66331;46.796;9.824;2023-01-27T08:05:33;83943.17;;;-14.71;42.70
36514;BME280;66331;46.796;9.824;2023-01-27T08:08:00;83937.00;;;-14.09;41.18
36514;BME280;66331;46.796;9.824;2023-01-27T08:10:27;83932.26;;;-13.69;41.13
36514;BME280;66331;46.796;9.824;2023-01-27T08:12:55;83941.48;;;-13.50;40.47
36514;BME280;66331;46.796;9.824;2023-01-27T08:15:22;83937.37;;;-13.38;40.38
36514;BME280;66331;46.796;9.824;2023-01-27T08:17:54;83939.94;;;-13.54;40.94
36514;BME280;66331;46.796;9.824;2023-01-27T08:20:22;83944.56;;;-13.21;40.76
36514;BME280;66331;46.796;9.824;2023-01-27T08:22:49;83943.79;;;-12.99;40.52
36514;BME280;66331;46.796;9.824;2023-01-27T08:25:17;83941.79;;;-13.87;40.62
36514;BME280;66331;46.796;9.824;2023-01-27T08:27:48;83940.81;;;-13.79;40.83
36514;BME280;66331;46.796;9.824;2023-01-27T08:30:16;83943.72;;;-13.33;39.88
36514;BME280;66331;46.796;9.824;2023-01-27T08:32:44;83939.04;;;-13.07;39.60
36514;BME280;66331;46.796;9.824;2023-01-27T08:35:11;83936.23;;;-13.09;40.32
36514;BME280;66331;46.796;9.824;2023-01-27T08:37:38;83942.72;;;-13.47;40.75
36514;BME280;66331;46.796;9.824;2023-01-27T08:40:06;83940.57;;;-13.67;41.22
36514;BME280;66331;46.796;9.824;2023-01-27T08:42:33;83945.93;;;-13.44;41.19
36514;BME280;66331;46.796;9.824;2023-01-27T08:45:00;83946.31;;;-13.40;41.09
36514;BME280;66331;46.796;9.824;2023-01-27T08:47:27;83942.47;;;-13.59;40.40
36514;BME280;66331;46.796;9.824;2023-01-27T08:49:54;83942.39;;;-12.83;39.66
36514;BME280;66331;46.796;9.824;2023-01-27T08:52:21;83944.65;;;-12.68;39.58
36514;BME280;66331;46.796;9.824;2023-01-27T08:54:49;83949.79;;;-13.13;39.73
36514;BME280;66331;46.796;9.824;2023-01-27T08:57:16;83948.45;;;-12.35;40.12
36514;BME280;66331;46.796;9.824;2023-01-27T08:59:43;83949.61;;;-12.96;40.03
36514;BME280;66331;46.796;9.824;2023-01-27T09:02:12;83953.80;;;-12.70;40.41
36514;BME280;66331;46.796;9.824;2023-01-27T09:04:39;83955.16;;;-12.64;41.30
36514;BME280;66331;46.796;9.824;2023-01-27T09:07:06;83963.03;;;-13.38;42.02
36514;BME280;66331;46.796;9.824;2023-01-27T09:09:33;83956.90;;;-12.71;41.74
36514;BME280;66331;46.796;9.824;2023-01-27T09:12:00;83958.72;;;-13.30;42.48
36514;BME280;66331;46.796;9.824;2023-01-27T09:14:27;83956.92;;;-12.41;42.28
36514;BME280;66331;46.796;9.824;2023-01-27T09:16:55;83955.53;;;-11.82;44.52
36514;BME280;66331;46.796;9.824;2023-01-27T09:19:22;83953.32;;;-11.75;41.82
36514;BME280;66331;46.796;9.824;2023-01-27T09:21:49;83953.11;;;-11.11;42.85
36514;BME280;66331;46.796;9.824;2023-01-27T09:24:16;83952.23;;;-11.37;44.29
36514;BME280;66331;46.796;9.824;2023-01-27T09:26:43;83952.17;;;-11.78;43.48
36514;BME280;66331;46.796;9.824;2023-01-27T09:29:10;83955.28;;;-11.18;43.73
36514;BME280;66331;46.796;9.824;2023-01-27T09:31:37;83958.36;;;-11.41;43.02
36514;BME280;66331;46.796;9.824;2023-01-27T09:34:04;83958.35;;;-11.43;44.79
36514;BME280;66331;46.796;9.824;2023-01-27T09:36:35;83956.24;;;-11.74;46.03
36514;BME280;66331;46.796;9.824;2023-01-27T09:39:06;83954.73;;;-12.70;47.10
36514;BME280;66331;46.796;9.824;2023-01-27T09:41:55;83952.96;;;-12.43;49.18
36514;BME280;66331;46.796;9.824;2023-01-27T09:44:40;83956.81;;;-11.23;46.91
36514;BME280;66331;46.796;9.824;2023-01-27T09:47:27;83958.30;;;-10.23;45.79
36514;BME280;66331;46.796;9.824;2023-01-27T09:50:11;83952.21;;;-9.78;44.73
36514;BME280;66331;46.796;9.824;2023-01-27T09:52:53;83948.18;;;-9.23;44.75
36514;BME280;66331;46.796;9.824;2023-01-27T09:55:32;83947.60;;;-8.39;43.80
36514;BME280;66331;46.796;9.824;2023-01-27T09:58:08;83947.00;;;-8.75;44.42
36514;BME280;66331;46.796;9.824;2023-01-27T10:00:46;83950.86;;;-8.21;43.77
36514;BME280;66331;46.796;9.824;2023-01-27T10:03:43;83952.38;;;-8.88;44.59
36514;BME280;66331;46.796;9.824;2023-01-27T10:06:26;83948.04;;;-8.47;44.72
36514;BME280;66331;46.796;9.824;2023-01-27T10:09:12;83948.36;;;-8.92;45.72
36514;BME280;66331;46.796;9.824;2023-01-27T10:11:56;83942.54;;;-8.36;45.43
36514;BME280;66331;46.796;9.824;2023-01-27T10:14:31;83944.95;;;-8.46;45.90
36514;BME280;66331;46.796;9.824;2023-01-27T10:17:12;83943.64;;;-8.59;45.80
36514;BME280;66331;46.796;9.824;2023-01-27T10:19:57;83942.11;;;-9.01;45.33
36514;BME280;66331;46.796;9.824;2023-01-27T10:22:36;83932.85;;;-8.31;44.69
36514;BME280;66331;46.796;9.824;2023-01-27T10:25:15;83932.69;;;-8.69;45.11
36514;BME280;66331;46.796;9.824;2023-01-27T10:27:49;83938.49;;;-10.45;49.50
36514;BME280;66331;46.796;9.824;2023-01-27T10:30:26;83934.31;;;-8.74;46.19
36514;BME280;66331;46.796;9.824;2023-01-27T10:33:02;83930.46;;;-8.29;44.39
36514;BME280;66331;46.796;9.824;2023-01-27T10:35:37;83924.88;;;-8.37;44.21
36514;BME280;66331;46.796;9.824;2023-01-27T10:38:14;83927.97;;;-8.28;43.58
36514;BME280;66331;46.796;9.824;2023-01-27T10:40:49;83925.07;;;-7.80;43.11
36514;BME280;66331;46.796;9.824;2023-01-27T10:43:24;83924.20;;;-8.55;43.81
36514;BME280;66331;46.796;9.824;2023-01-27T10:45:59;83923.40;;;-8.16;43.55
36514;BME280;66331;46.796;9.824;2023-01-27T10:48:43;83920.46;;;-8.30;43.42
36514;BME280;66331;46.796;9.824;2023-01-27T10:51:27;83917.21;;;-7.78;43.20
36514;BME280;66331;46.796;9.824;2023-01-27T10:54:02;83919.37;;;-7.92;42.30
36514;BME280;66331;46.796;9.824;2023-01-27T10:56:35;83921.58;;;-7.79;42.13
36514;BME280;66331;46.796;9.824;2023-01-27T10:59:20;83919.48;;;-7.85;42.45
36514;BME280;66331;46.796;9.824;2023-01-27T11:01:58;83915.95;;;-7.90;43.02
36514;BME280;66331;46.796;9.824;2023-01-27T11:04:33;83913.79;;;-7.23;41.95
36514;BME280;66331;46.796;9.824;2023-01-27T11:07:03;83917.68;;;-9.00;45.36
36514;BME280;66331;46.796;9.824;2023-01-27T11:09:45;83916.18;;;-8.81;45.05
36514;BME280;66331;46.796;9.824;2023-01-27T11:12:15;83916.44;;;-8.65;43.86
36514;BME280;66331;46.796;9.824;2023-01-27T11:14:48;83912.48;;;-7.75;42.97
36514;BME280;66331;46.796;9.824;2023-01-27T11:17:22;83913.59;;;-7.79;42.67
36514;BME280;66331;46.796;9.824;2023-01-27T11:19:56;83913.76;;;-7.55;43.03
36514;BME280;66331;46.796;9.824;2023-01-27T11:22:29;83905.37;;;-7.89;43.03
36514;BME280;66331;46.796;9.824;2023-01-27T11:25:06;83905.01;;;-7.37;42.82
36514;BME280;66331;46.796;9.824;2023-01-27T11:27:56;83909.35;;;-8.27;43.94
36514;BME280;66331;46.796;9.824;2023-01-27T11:30:33;83909.06;;;-8.00;42.44
36514;BME280;66331;46.796;9.824;2023-01-27T11:33:09;83911.65;;;-8.35;44.54
36514;BME280;66331;46.796;9.824;2023-01-27T11:35:37;83910.09;;;-9.38;47.19
36514;BME280;66331;46.796;9.824;2023-01-27T11:38:06;83906.47;;;-9.09;46.39
36514;BME280;66331;46.796;9.824;2023-01-27T11:40:39;83901.97;;;-7.90;44.41
36514;BME280;66331;46.796;9.824;2023-01-27T11:43:08;83902.95;;;-9.16;46.25
36514;BME280;66331;46.796;9.824;2023-01-27T11:45:44;83899.27;;;-9.16;45.93
36514;BME280;66331;46.796;9.824;2023-01-27T11:48:13;83901.05;;;-8.93;46.60
36514;BME280;66331;46.796;9.824;2023-01-27T11:50:45;83911.11;;;-9.84;49.22
36514;BME280;66331;46.796;9.824;2023-01-27T11:53:17;83908.37;;;-8.23;45.96
36514;BME280;66331;46.796;9.824;2023-01-27T11:55:49;83909.45;;;-8.18;44.69
36514;BME280;66331;46.796;9.824;2023-01-27T11:58:29;83903.60;;;-7.36;43.57
36514;BME280;66331;46.796;9.824;2023-01-27T12:01:00;83901.28;;;-7.38;43.28
36514;BME280;66331;46.796;9.824;2023-01-27T12:03:44;83898.24;;;-7.53;43.25
36514;BME280;66331;46.796;9.824;2023-01-27T12:06:35;83896.41;;;-7.42;41.70
36514;BME280;66331;46.796;9.824;2023-01-27T12:09:03;83897.58;;;-7.47;42.37
36514;BME280;66331;46.796;9.824;2023-01-27T12:11:31;83892.82;;;-7.27;42.69
36514;BME280;66331;46.796;9.824;2023-01-27T12:13:59;83888.85;;;-7.51;42.00
36514;BME280;66331;46.796;9.824;2023-01-27T12:16:41;83883.16;;;-7.34;42.44
36514;BME280;66331;46.796;9.824;2023-01-27T12:19:20;83881.49;;;-7.00;41.08
36514;BME280;66331;46.796;9.824;2023-01-27T12:21:50;83880.15;;;-6.72;40.94
36514;BME280;66331;46.796;9.824;2023-01-27T12:24:23;83875.63;;;-6.62;41.59
36514;BME280;66331;46.796;9.824;2023-01-27T12:26:54;83873.85;;;-6.22;40.41
36514;BME280;66331;46.796;9.824;2023-01-27T12:29:27;83872.06;;;-6.37;40.92
36514;BME280;66331;46.796;9.824;2023-01-27T12:31:57;83872.00;;;-5.80;39.71
36514;BME280;66331;46.796;9.824;2023-01-27T12:34:31;83873.09;;;-5.95;40.01
36514;BME280;66331;46.796;9.824;2023-01-27T12:37:01;83873.97;;;-8.15;44.06
36514;BME280;66331;46.796;9.824;2023-01-27T12:39:39;83872.87;;;-8.18;44.83
36514;BME280;66331;46.796;9.824;2023-01-27T12:42:32;83871.66;;;-6.50;42.20
36514;BME280;66331;46.796;9.824;2023-01-27T12:45:04;83871.88;;;-6.05;40.66
36514;BME280;66331;46.796;9.824;2023-01-27T12:48:00;83873.59;;;-5.99;40.58
36514;BME280;66331;46.796;9.824;2023-01-27T12:50:30;83870.87;;;-6.30;41.01
36514;BME280;66331;46.796;9.824;2023-01-27T12:53:11;83867.89;;;-5.93;40.36
36514;BME280;66331;46.796;9.824;2023-01-27T12:55:42;83866.16;;;-6.37;40.99
36514;BME280;66331;46.796;9.824;2023-01-27T13:00:31;83868.82;;;-6.00;41.37
36514;BME280;66331;46.796;9.824;2023-01-27T13:03:09;83871.76;;;-6.55;41.56
36514;BME280;66331;46.796;9.824;2023-01-27T13:05:42;83875.43;;;-6.54;40.59
36514;BME280;66331;46.796;9.824;2023-01-27T13:08:40;83876.92;;;-5.61;39.66
36514;BME280;66331;46.796;9.824;2023-01-27T13:11:09;83873.86;;;-5.70;39.89